sensor_id;sensor_type;location;lat;lon;timestamp;P1;durP1;ratioP1;P2;durP2;ratioP2
19032;SDS011;9649;51.042;13.804;2023-02-01T00:02:15;7.00;;;2.70;;
19032;SDS011;9649;51.042;13.804;2023-02-01T00:07:17;12.90;;;3.00;;
19032;SDS011;9649;51.042;13.804;2023-02-01T00:12:20;7.83;;;2.83;;
19032;SDS011;9649;51.042;13.804;2023-02-01T00:17:24;11.80;;;3.40;;
19032;SDS011;9649;51.042;13.804;2023-02-01T00:22:27;9.43;;;2.80;;
19032;SDS011;9649;51.042;13.804;2023-02-01T00:27:30;11.77;;;2.63;;
19032;SDS011;9649;51.042;13.804;2023-02-01T00:32:34;11.30;;;2.83;;
19032;SDS011;9649;51.042;13.804;2023-02-01T00:37:37;7.97;;;2.50;;
19032;SDS011;9649;51.042;13.804;2023-02-01T00:42:40;13.43;;;2.87;;
19032;SDS011;9649;51.042;13.804;2023-02-01T00:47:44;7.27;;;2.53;;
19032;SDS011;9649;51.042;13.804;2023-02-01T00:52:46;10.83;;;2.70;;
19032;SDS011;9649;51.042;13.804;2023-02-01T00:57:49;11.97;;;2.60;;
19032;SDS011;9649;51.042;13.804;2023-02-01T01:02:53;10.43;;;2.60;;
19032;SDS011;9649;51.042;13.804;2023-02-01T01:07:57;10.30;;;2.60;;
19032;SDS011;9649;51.042;13.804;2023-02-01T01:12:59;10.07;;;2.50;;
19032;SDS011;9649;51.042;13.804;2023-02-01T01:18:03;9.37;;;2.47;;
19032;SDS011;9649;51.042;13.804;2023-02-01T01:23:07;14.73;;;3.37;;
19032;SDS011;9649;51.042;13.804;2023-02-01T01:28:10;9.70;;;2.43;;
19032;SDS011;9649;51.042;13.804;2023-02-01T01:33:14;8.60;;;2.33;;
19032;SDS011;9649;51.042;13.804;2023-02-01T01:38:17;10.03;;;2.30;;
19032;SDS011;9649;51.042;13.804;2023-02-01T01:43:19;14.80;;;2.43;;
19032;SDS011;9649;51.042;13.804;2023-02-01T01:48:25;13.03;;;2.40;;
19032;SDS011;9649;51.042;13.804;2023-02-01T01:53:31;13.07;;;2.60;;
19032;SDS011;9649;51.042;13.804;2023-02-01T01:58:40;11.57;;;2.37;;
19032;SDS011;9649;51.042;13.804;2023-02-01T02:03:45;13.10;;;2.30;;
19032;SDS011;9649;51.042;13.804;2023-02-01T02:08:48;12.23;;;2.63;;
19032;SDS011;9649;51.042;13.804;2023-02-01T02:13:52;13.83;;;2.20;;
19032;SDS011;9649;51.042;13.804;2023-02-01T02:19:04;8.73;;;2.23;;
19032;SDS011;9649;51.042;13.804;2023-02-01T02:35:32;6.43;;;2.03;;
19032;SDS011;9649;51.042;13.804;2023-02-01T02:40:45;10.13;;;2.23;;
19032;SDS011;9649;51.042;13.804;2023-02-01T02:45:51;7.97;;;2.37;;
19032;SDS011;9649;51.042;13.804;2023-02-01T02:51:18;13.73;;;2.13;;
19032;SDS011;9649;51.042;13.804;2023-02-01T02:56:43;14.13;;;2.43;;
19032;SDS011;9649;51.042;13.804;2023-02-01T03:02:04;12.83;;;2.50;;
19032;SDS011;9649;51.042;13.804;2023-02-01T03:13:03;9.33;;;2.40;;
19032;SDS011;9649;51.042;13.804;2023-02-01T03:18:11;14.63;;;2.73;;
19032;SDS011;9649;51.042;13.804;2023-02-01T03:23:19;10.33;;;2.23;;
19032;SDS011;9649;51.042;13.804;2023-02-01T03:28:26;12.93;;;2.00;;
19032;SDS011;9649;51.042;13.804;2023-02-01T03:33:32;10.93;;;2.27;;
19032;SDS011;9649;51.042;13.804;2023-02-01T03:38:37;10.40;;;2.40;;
19032;SDS011;9649;51.042;13.804;2023-02-01T03:43:46;13.90;;;2.40;;
19032;SDS011;9649;51.042;13.804;2023-02-01T03:48:53;11.17;;;2.00;;
19032;SDS011;9649;51.042;13.804;2023-02-01T03:53:59;10.60;;;2.47;;
19032;SDS011;9649;51.042;13.804;2023-02-01T03:59:04;11.30;;;1.93;;
19032;SDS011;9649;51.042;13.804;2023-02-01T04:04:07;11.10;;;2.67;;
19032;SDS011;9649;51.042;13.804;2023-02-01T04:09:12;9.63;;;1.90;;
19032;SDS011;9649;51.042;13.804;2023-02-01T04:14:15;7.67;;;2.70;;
19032;SDS011;9649;51.042;13.804;2023-02-01T04:19:18;10.10;;;2.50;;
19032;SDS011;9649;51.042;13.804;2023-02-01T04:24:22;11.80;;;2.37;;
19032;SDS011;9649;51.042;13.804;2023-02-01T04:29:25;13.20;;;2.87;;
19032;SDS011;9649;51.042;13.804;2023-02-01T04:34:28;10.67;;;2.43;;
19032;SDS011;9649;51.042;13.804;2023-02-01T04:39:32;9.83;;;2.90;;
19032;SDS011;9649;51.042;13.804;2023-02-01T04:44:35;10.20;;;2.10;;
19032;SDS011;9649;51.042;13.804;2023-02-01T04:49:40;9.87;;;2.47;;
19032;SDS011;9649;51.042;13.804;2023-02-01T04:54:44;13.00;;;2.20;;
19032;SDS011;9649;51.042;13.804;2023-02-01T04:59:47;12.27;;;2.20;;
19032;SDS011;9649;51.042;13.804;2023-02-01T05:04:50;11.37;;;2.27;;
19032;SDS011;9649;51.042;13.804;2023-02-01T05:09:54;10.93;;;2.07;;
19032;SDS011;9649;51.042;13.804;2023-02-01T05:14:56;10.10;;;2.67;;
19032;SDS011;9649;51.042;13.804;2023-02-01T05:19:59;14.67;;;3.23;;
19032;SDS011;9649;51.042;13.804;2023-02-01T05:25:04;16.87;;;3.63;;
19032;SDS011;9649;51.042;13.804;2023-02-01T05:30:09;12.07;;;1.80;;
19032;SDS011;9649;51.042;13.804;2023-02-01T05:35:12;10.77;;;2.70;;
19032;SDS011;9649;51.042;13.804;2023-02-01T05:40:18;15.40;;;2.60;;
19032;SDS011;9649;51.042;13.804;2023-02-01T05:45:21;14.50;;;3.00;;
19032;SDS011;9649;51.042;13.804;2023-02-01T05:50:24;13.93;;;2.33;;
19032;SDS011;9649;51.042;13.804;2023-02-01T05:55:29;14.50;;;2.60;;
19032;SDS011;9649;51.042;13.804;2023-02-01T06:00:31;10.67;;;3.10;;
19032;SDS011;9649;51.042;13.804;2023-02-01T06:05:34;12.20;;;2.53;;
19032;SDS011;9649;51.042;13.804;2023-02-01T06:10:39;7.50;;;2.50;;
19032;SDS011;9649;51.042;13.804;2023-02-01T06:15:42;12.40;;;2.47;;
19032;SDS011;9649;51.042;13.804;2023-02-01T06:20:51;12.83;;;2.33;;
19032;SDS011;9649;51.042;13.804;2023-02-01T06:25:59;15.93;;;2.63;;
19032;SDS011;9649;51.042;13.804;2023-02-01T06:31:03;14.87;;;2.30;;
19032;SDS011;9649;51.042;13.804;2023-02-01T06:36:09;12.37;;;2.63;;
19032;SDS011;9649;51.042;13.804;2023-02-01T06:41:14;13.00;;;2.17;;
19032;SDS011;9649;51.042;13.804;2023-02-01T06:46:17;9.97;;;2.03;;
19032;SDS011;9649;51.042;13.804;2023-02-01T06:51:21;17.00;;;2.77;;
19032;SDS011;9649;51.042;13.804;2023-02-01T06:56:26;9.23;;;2.23;;
19032;SDS011;9649;51.042;13.804;2023-02-01T07:01:29;16.33;;;2.90;;
19032;SDS011;9649;51.042;13.804;2023-02-01T07:06:32;17.83;;;2.60;;
19032;SDS011;9649;51.042;13.804;2023-02-01T07:11:37;14.20;;;2.30;;
19032;SDS011;9649;51.042;13.804;2023-02-01T07:16:42;12.97;;;2.67;;
19032;SDS011;9649;51.042;13.804;2023-02-01T07:21:46;15.47;;;2.50;;
19032;SDS011;9649;51.042;13.804;2023-02-01T07:26:51;11.83;;;2.53;;
19032;SDS011;9649;51.042;13.804;2023-02-01T07:31:53;18.50;;;3.10;;
19032;SDS011;9649;51.042;13.804;2023-02-01T07:36:56;8.77;;;2.70;;
19032;SDS011;9649;51.042;13.804;2023-02-01T07:42:00;12.07;;;2.73;;
19032;SDS011;9649;51.042;13.804;2023-02-01T07:47:03;13.77;;;2.83;;
19032;SDS011;9649;51.042;13.804;2023-02-01T07:52:06;11.53;;;2.33;;
19032;SDS011;9649;51.042;13.804;2023-02-01T07:57:10;19.37;;;2.87;;
19032;SDS011;9649;51.042;13.804;2023-02-01T08:02:14;12.47;;;2.40;;
19032;SDS011;9649;51.042;13.804;2023-02-01T08:07:17;9.37;;;2.70;;
19032;SDS011;9649;51.042;13.804;2023-02-01T08:12:21;17.07;;;2.50;;
19032;SDS011;9649;51.042;13.804;2023-02-01T08:17:26;15.83;;;2.83;;
19032;SDS011;9649;51.042;13.804;2023-02-01T08:22:31;14.60;;;3.20;;
19032;SDS011;9649;51.042;13.804;2023-02-01T08:27:35;13.07;;;2.73;;
19032;SDS011;9649;51.042;13.804;2023-02-01T08:32:38;14.37;;;3.37;;
19032;SDS011;9649;51.042;13.804;2023-02-01T08:37:41;12.23;;;2.80;;
19032;SDS011;9649;51.042;13.804;2023-02-01T08:42:45;12.63;;;3.10;;
19032;SDS011;9649;51.042;13.804;2023-02-01T08:47:53;10.43;;;2.40;;
19032;SDS011;9649;51.042;13.804;2023-02-01T08:52:56;12.57;;;2.67;;
19032;SDS011;9649;51.042;13.804;2023-02-01T08:58:00;11.90;;;2.47;;
19032;SDS011;9649;51.042;13.804;2023-02-01T09:03:03;13.27;;;2.20;;
19032;SDS011;9649;51.042;13.804;2023-02-01T09:08:05;11.17;;;2.30;;
19032;SDS011;9649;51.042;13.804;2023-02-01T09:13:10;15.10;;;2.60;;
19032;SDS011;9649;51.042;13.804;2023-02-01T09:18:13;6.13;;;1.80;;
19032;SDS011;9649;51.042;13.804;2023-02-01T09:23:15;15.03;;;2.70;;
19032;SDS011;9649;51.042;13.804;2023-02-01T09:28:19;11.90;;;2.77;;
19032;SDS011;9649;51.042;13.804;2023-02-01T09:33:22;11.63;;;2.67;;
19032;SDS011;9649;51.042;13.804;2023-02-01T09:38:25;11.73;;;2.20;;
19032;SDS011;9649;51.042;13.804;2023-02-01T09:43:32;9.93;;;2.07;;
19032;SDS011;9649;51.042;13.804;2023-02-01T09:48:41;13.67;;;2.60;;
19032;SDS011;9649;51.042;13.804;2023-02-01T09:53:46;5.17;;;2.17;;
19032;SDS011;9649;51.042;13.804;2023-02-01T09:58:57;11.07;;;2.50;;
19032;SDS011;9649;51.042;13.804;2023-02-01T10:04:07;16.30;;;2.93;;
19032;SDS011;9649;51.042;13.804;2023-02-01T10:09:20;13.67;;;2.87;;
19032;SDS011;9649;51.042;13.804;2023-02-01T10:20:03;8.87;;;2.57;;
19032;SDS011;9649;51.042;13.804;2023-02-01T10:25:13;12.07;;;3.10;;
19032;SDS011;9649;51.042;13.804;2023-02-01T10:30:25;8.77;;;2.47;;
19032;SDS011;9649;51.042;13.804;2023-02-01T10:35:36;10.47;;;2.80;;
19032;SDS011;9649;51.042;13.804;2023-02-01T10:40:39;6.87;;;2.40;;
19032;SDS011;9649;51.042;13.804;2023-02-01T10:45:44;9.50;;;2.47;;
19032;SDS011;9649;51.042;13.804;2023-02-01T10:50:48;10.27;;;3.17;;
19032;SDS011;9649;51.042;13.804;2023-02-01T10:55:55;12.00;;;2.60;;
19032;SDS011;9649;51.042;13.804;2023-02-01T11:01:00;8.57;;;2.80;;
19032;SDS011;9649;51.042;13.804;2023-02-01T11:06:17;11.67;;;2.87;;
19032;SDS011;9649;51.042;13.804;2023-02-01T11:11:24;18.33;;;2.53;;
19032;SDS011;9649;51.042;13.804;2023-02-01T11:16:34;9.67;;;2.50;;
19032;SDS011;9649;51.042;13.804;2023-02-01T11:21:38;13.47;;;3.30;;
19032;SDS011;9649;51.042;13.804;2023-02-01T11:26:44;12.03;;;2.47;;
19032;SDS011;9649;51.042;13.804;2023-02-01T11:31:49;6.67;;;2.00;;
19032;SDS011;9649;51.042;13.804;2023-02-01T11:36:52;11.90;;;2.57;;
19032;SDS011;9649;51.042;13.804;2023-02-01T11:42:00;8.97;;;2.13;;
19032;SDS011;9649;51.042;13.804;2023-02-01T11:47:23;13.57;;;2.70;;
19032;SDS011;9649;51.042;13.804;2023-02-01T11:52:43;10.90;;;2.30;;
19032;SDS011;9649;51.042;13.804;2023-02-01T11:58:00;8.70;;;2.23;;
19032;SDS011;9649;51.042;13.804;2023-02-01T12:03:30;10.17;;;1.97;;
19032;SDS011;9649;51.042;13.804;2023-02-01T12:08:52;11.93;;;2.17;;
19032;SDS011;9649;51.042;13.804;2023-02-01T12:14:08;13.10;;;2.50;;
19032;SDS011;9649;51.042;13.804;2023-02-01T12:19:33;10.57;;;2.23;;
19032;SDS011;9649;51.042;13.804;2023-02-01T12:24:50;16.07;;;2.63;;
19032;SDS011;9649;51.042;13.804;2023-02-01T12:30:22;9.83;;;2.40;;
19032;SDS011;9649;51.042;13.804;2023-02-01T12:35:52;8.73;;;2.00;;
19032;SDS011;9649;51.042;13.804;2023-02-01T12:41:08;7.27;;;1.80;;
19032;SDS011;9649;51.042;13.804;2023-02-01T12:46:21;8.23;;;1.97;;
19032;SDS011;9649;51.042;13.804;2023-02-01T12:51:31;9.07;;;2.07;;
19032;SDS011;9649;51.042;13.804;2023-02-01T12:56:39;6.57;;;1.90;;
19032;SDS011;9649;51.042;13.804;2023-02-01T13:01:46;7.20;;;1.80;;
19032;SDS011;9649;51.042;13.804;2023-02-01T13:06:56;5.47;;;1.90;;
19032;SDS011;9649;51.042;13.804;2023-02-01T13:12:06;7.03;;;2.17;;
19032;SDS011;9649;51.042;13.804;2023-02-01T13:17:16;11.47;;;2.47;;
19032;SDS011;9649;51.042;13.804;2023-02-01T13:22:28;6.07;;;1.90;;
19032;SDS011;9649;51.042;13.804;2023-02-01T13:27:33;8.00;;;2.00;;
19032;SDS011;9649;51.042;13.804;2023-02-01T13:32:43;10.00;;;2.33;;
19032;SDS011;9649;51.042;13.804;2023-02-01T13:38:38;11.73;;;2.23;;
19032;SDS011;9649;51.042;13.804;2023-02-01T13:44:01;8.73;;;1.93;;
19032;SDS011;9649;51.042;13.804;2023-02-01T13:49:13;10.13;;;2.10;;
19032;SDS011;9649;51.042;13.804;2023-02-01T13:54:27;11.93;;;2.23;;
19032;SDS011;9649;51.042;13.804;2023-02-01T14:05:11;8.23;;;2.10;;
19032;SDS011;9649;51.042;13.804;2023-02-01T14:10:50;5.67;;;1.73;;
19032;SDS011;9649;51.042;13.804;2023-02-01T14:16:11;6.43;;;1.87;;
19032;SDS011;9649;51.042;13.804;2023-02-01T14:21:17;7.23;;;2.03;;
19032;SDS011;9649;51.042;13.804;2023-02-01T14:26:26;7.70;;;1.70;;
19032;SDS011;9649;51.042;13.804;2023-02-01T14:31:52;6.30;;;1.77;;
19032;SDS011;9649;51.042;13.804;2023-02-01T14:37:02;7.87;;;1.70;;
19032;SDS011;9649;51.042;13.804;2023-02-01T14:42:17;6.27;;;1.60;;
19032;SDS011;9649;51.042;13.804;2023-02-01T14:47:28;8.27;;;1.53;;
19032;SDS011;9649;51.042;13.804;2023-02-01T14:52:36;7.93;;;1.90;;
19032;SDS011;9649;51.042;13.804;2023-02-01T14:57:46;9.87;;;2.00;;
19032;SDS011;9649;51.042;13.804;2023-02-01T15:02:52;6.50;;;2.43;;
19032;SDS011;9649;51.042;13.804;2023-02-01T15:07:57;8.23;;;2.00;;
19032;SDS011;9649;51.042;13.804;2023-02-01T15:13:07;9.27;;;2.43;;
19032;SDS011;9649;51.042;13.804;2023-02-01T15:18:21;7.27;;;1.70;;
19032;SDS011;9649;51.042;13.804;2023-02-01T15:23:23;8.47;;;2.10;;
19032;SDS011;9649;51.042;13.804;2023-02-01T15:28:28;8.37;;;2.13;;
19032;SDS011;9649;51.042;13.804;2023-02-01T15:33:30;11.87;;;2.60;;
19032;SDS011;9649;51.042;13.804;2023-02-01T15:38:35;10.23;;;2.40;;
19032;SDS011;9649;51.042;13.804;2023-02-01T15:43:42;10.53;;;2.20;;
19032;SDS011;9649;51.042;13.804;2023-02-01T15:48:48;10.03;;;2.07;;
19032;SDS011;9649;51.042;13.804;2023-02-01T15:53:55;10.37;;;2.50;;
19032;SDS011;9649;51.042;13.804;2023-02-01T15:59:04;8.83;;;2.40;;
19032;SDS011;9649;51.042;13.804;2023-02-01T16:04:16;11.43;;;2.50;;
19032;SDS011;9649;51.042;13.804;2023-02-01T16:09:21;8.17;;;2.20;;
19032;SDS011;9649;51.042;13.804;2023-02-01T16:14:26;11.07;;;3.90;;
19032;SDS011;9649;51.042;13.804;2023-02-01T16:19:29;9.07;;;2.30;;
19032;SDS011;9649;51.042;13.804;2023-02-01T16:24:32;9.47;;;3.80;;
19032;SDS011;9649;51.042;13.804;2023-02-01T16:29:36;8.50;;;2.60;;
19032;SDS011;9649;51.042;13.804;2023-02-01T16:34:42;10.00;;;2.77;;
19032;SDS011;9649;51.042;13.804;2023-02-01T16:39:45;11.67;;;3.50;;
19032;SDS011;9649;51.042;13.804;2023-02-01T16:44:49;13.87;;;3.37;;
19032;SDS011;9649;51.042;13.804;2023-02-01T16:49:52;11.30;;;3.60;;
19032;SDS011;9649;51.042;13.804;2023-02-01T16:54:55;11.63;;;3.77;;
19032;SDS011;9649;51.042;13.804;2023-02-01T16:59:59;11.20;;;4.30;;
19032;SDS011;9649;51.042;13.804;2023-02-01T17:05:22;16.37;;;5.00;;
19032;SDS011;9649;51.042;13.804;2023-02-01T17:10:25;15.77;;;3.93;;
19032;SDS011;9649;51.042;13.804;2023-02-01T17:15:35;7.70;;;2.30;;
19032;SDS011;9649;51.042;13.804;2023-02-01T17:20:38;1.90;;;1.13;;
19032;SDS011;9649;51.042;13.804;2023-02-01T17:25:41;6.23;;;1.10;;
19032;SDS011;9649;51.042;13.804;2023-02-01T17:30:45;2.03;;;1.20;;
19032;SDS011;9649;51.042;13.804;2023-02-01T17:35:48;2.77;;;0.90;;
19032;SDS011;9649;51.042;13.804;2023-02-01T17:40:51;1.10;;;0.73;;
19032;SDS011;9649;51.042;13.804;2023-02-01T17:45:57;4.30;;;0.70;;
19032;SDS011;9649;51.042;13.804;2023-02-01T17:51:03;2.57;;;0.83;;
19032;SDS011;9649;51.042;13.804;2023-02-01T17:56:07;2.07;;;1.20;;
19032;SDS011;9649;51.042;13.804;2023-02-01T18:01:17;2.30;;;1.10;;
19032;SDS011;9649;51.042;13.804;2023-02-01T18:06:21;2.87;;;1.10;;
19032;SDS011;9649;51.042;13.804;2023-02-01T18:11:26;2.27;;;1.07;;
19032;SDS011;9649;51.042;13.804;2023-02-01T18:16:34;3.50;;;1.00;;
19032;SDS011;9649;51.042;13.804;2023-02-01T18:21:37;5.50;;;1.30;;
19032;SDS011;9649;51.042;13.804;2023-02-01T18:26:42;5.93;;;1.40;;
19032;SDS011;9649;51.042;13.804;2023-02-01T18:31:47;3.47;;;1.20;;
19032;SDS011;9649;51.042;13.804;2023-02-01T18:36:50;5.50;;;1.20;;
19032;SDS011;9649;51.042;13.804;2023-02-01T18:41:53;7.23;;;1.27;;
19032;SDS011;9649;51.042;13.804;2023-02-01T18:46:57;6.53;;;1.17;;
19032;SDS011;9649;51.042;13.804;2023-02-01T18:52:00;6.20;;;1.40;;
19032;SDS011;9649;51.042;13.804;2023-02-01T18:57:03;4.77;;;1.20;;
19032;SDS011;9649;51.042;13.804;2023-02-01T19:02:09;4.27;;;1.20;;
19032;SDS011;9649;51.042;13.804;2023-02-01T19:07:14;8.03;;;1.40;;
19032;SDS011;9649;51.042;13.804;2023-02-01T19:12:17;6.37;;;1.60;;
19032;SDS011;9649;51.042;13.804;2023-02-01T19:17:23;6.93;;;1.93;;
19032;SDS011;9649;51.042;13.804;2023-02-01T19:22:26;5.93;;;1.20;;
19032;SDS011;9649;51.042;13.804;2023-02-01T19:27:29;4.53;;;1.50;;
19032;SDS011;9649;51.042;13.804;2023-02-01T19:32:34;9.07;;;1.30;;
19032;SDS011;9649;51.042;13.804;2023-02-01T19:37:37;5.17;;;1.20;;
19032;SDS011;9649;51.042;13.804;2023-02-01T19:42:45;5.33;;;1.27;;
19032;SDS011;9649;51.042;13.804;2023-02-01T19:47:50;6.60;;;1.10;;
19032;SDS011;9649;51.042;13.804;2023-02-01T19:52:53;4.97;;;1.17;;
19032;SDS011;9649;51.042;13.804;2023-02-01T19:57:57;3.30;;;0.90;;
19032;SDS011;9649;51.042;13.804;2023-02-01T20:03:04;1.60;;;0.73;;
19032;SDS011;9649;51.042;13.804;2023-02-01T20:08:08;2.87;;;1.00;;
19032;SDS011;9649;51.042;13.804;2023-02-01T20:13:12;5.07;;;1.20;;
19032;SDS011;9649;51.042;13.804;2023-02-01T20:18:18;7.57;;;1.27;;
19032;SDS011;9649;51.042;13.804;2023-02-01T20:23:23;3.43;;;1.10;;
19032;SDS011;9649;51.042;13.804;2023-02-01T20:28:30;4.10;;;1.10;;
19032;SDS011;9649;51.042;13.804;2023-02-01T20:33:36;7.60;;;1.10;;
19032;SDS011;9649;51.042;13.804;2023-02-01T20:38:40;3.93;;;1.20;;
19032;SDS011;9649;51.042;13.804;2023-02-01T20:43:46;5.23;;;1.53;;
19032;SDS011;9649;51.042;13.804;2023-02-01T20:48:50;7.00;;;1.73;;
19032;SDS011;9649;51.042;13.804;2023-02-01T20:53:54;4.27;;;1.30;;
19032;SDS011;9649;51.042;13.804;2023-02-01T20:58:57;7.30;;;1.73;;
19032;SDS011;9649;51.042;13.804;2023-02-01T21:04:04;5.17;;;1.50;;
19032;SDS011;9649;51.042;13.804;2023-02-01T21:09:08;6.13;;;1.60;;
19032;SDS011;9649;51.042;13.804;2023-02-01T21:14:12;2.37;;;1.20;;
19032;SDS011;9649;51.042;13.804;2023-02-01T21:19:19;5.53;;;1.80;;
19032;SDS011;9649;51.042;13.804;2023-02-01T21:24:28;3.97;;;1.20;;
19032;SDS011;9649;51.042;13.804;2023-02-01T21:29:32;5.37;;;1.17;;
19032;SDS011;9649;51.042;13.804;2023-02-01T21:34:37;2.87;;;1.20;;
19032;SDS011;9649;51.042;13.804;2023-02-01T21:39:41;4.47;;;1.30;;
19032;SDS011;9649;51.042;13.804;2023-02-01T21:44:44;8.20;;;1.50;;
19032;SDS011;9649;51.042;13.804;2023-02-01T21:49:58;5.97;;;1.50;;
19032;SDS011;9649;51.042;13.804;2023-02-01T21:55:07;3.90;;;1.00;;
19032;SDS011;9649;51.042;13.804;2023-02-01T22:00:21;5.10;;;1.30;;
19032;SDS011;9649;51.042;13.804;2023-02-01T22:05:39;4.60;;;1.30;;
19032;SDS011;9649;51.042;13.804;2023-02-01T22:11:01;5.87;;;1.43;;
19032;SDS011;9649;51.042;13.804;2023-02-01T22:16:20;4.10;;;1.57;;
19032;SDS011;9649;51.042;13.804;2023-02-01T22:21:33;2.67;;;1.23;;
19032;SDS011;9649;51.042;13.804;2023-02-01T22:26:39;4.17;;;1.60;;
19032;SDS011;9649;51.042;13.804;2023-02-01T22:31:48;4.90;;;1.47;;
19032;SDS011;9649;51.042;13.804;2023-02-01T22:36:58;4.83;;;1.80;;
19032;SDS011;9649;51.042;13.804;2023-02-01T22:42:08;5.30;;;1.80;;
19032;SDS011;9649;51.042;13.804;2023-02-01T22:47:12;11.63;;;2.90;;
19032;SDS011;9649;51.042;13.804;2023-02-01T22:52:18;6.03;;;1.83;;
19032;SDS011;9649;51.042;13.804;2023-02-01T22:57:21;4.47;;;1.60;;
19032;SDS011;9649;51.042;13.804;2023-02-01T23:02:25;6.57;;;1.70;;
19032;SDS011;9649;51.042;13.804;2023-02-01T23:07:29;4.63;;;1.70;;
19032;SDS011;9649;51.042;13.804;2023-02-01T23:12:32;7.57;;;1.80;;
19032;SDS011;9649;51.042;13.804;2023-02-01T23:17:35;7.60;;;1.80;;
19032;SDS011;9649;51.042;13.804;2023-02-01T23:22:40;6.17;;;1.37;;
19032;SDS011;9649;51.042;13.804;2023-02-01T23:27:44;3.97;;;1.50;;
19032;SDS011;9649;51.042;13.804;2023-02-01T23:32:47;8.63;;;1.63;;
19032;SDS011;9649;51.042;13.804;2023-02-01T23:37:51;8.03;;;1.47;;
19032;SDS011;9649;51.042;13.804;2023-02-01T23:42:54;5.37;;;1.40;;
19032;SDS011;9649;51.042;13.804;2023-02-01T23:48:10;5.93;;;1.93;;
19032;SDS011;9649;51.042;13.804;2023-02-01T23:53:14;7.77;;;1.33;;
19032;SDS011;9649;51.042;13.804;2023-02-01T23:58:17;6.10;;;1.47;;
